createdAt,value
2019-05-13T00:00:23.379Z,6.79
2019-05-13T00:02:54.414Z,7.11
2019-05-13T00:05:24.999Z,6.94
2019-05-13T00:07:55.620Z,6.87
2019-05-13T00:10:26.093Z,6.81
2019-05-13T00:12:56.619Z,7.10
2019-05-13T00:15:34.007Z,6.97
2019-05-13T00:18:04.850Z,7.00
2019-05-13T00:20:35.591Z,7.03
2019-05-13T00:23:06.141Z,6.94
2019-05-13T00:25:36.907Z,6.90
2019-05-13T00:28:07.365Z,6.83
2019-05-13T00:30:38.037Z,6.90
2019-05-13T00:33:08.584Z,7.00
2019-05-13T00:35:39.041Z,6.83
2019-05-13T00:38:09.799Z,6.79
2019-05-13T00:40:40.636Z,6.74
2019-05-13T00:43:14.061Z,6.73
2019-05-13T00:45:44.776Z,6.86
2019-05-13T00:48:15.171Z,6.81
2019-05-13T00:50:45.654Z,6.86
2019-05-13T00:53:16.538Z,6.55
2019-05-13T00:55:47.620Z,6.37
2019-05-13T00:58:18.126Z,6.27
2019-05-13T01:00:48.919Z,6.23
2019-05-13T01:03:19.994Z,6.17
2019-05-13T01:05:50.930Z,6.22
2019-05-13T01:08:23.681Z,6.15
2019-05-13T01:10:54.285Z,6.13
2019-05-13T01:13:24.846Z,6.11
2019-05-13T01:15:55.350Z,6.08
2019-05-13T01:18:25.832Z,6.17
2019-05-13T01:20:56.406Z,6.16
2019-05-13T01:23:27.303Z,6.18
2019-05-13T01:25:57.800Z,6.09
2019-05-13T01:28:28.932Z,6.15
2019-05-13T01:30:59.401Z,5.98
2019-05-13T01:33:29.933Z,5.91
2019-05-13T01:36:01.036Z,5.90
2019-05-13T01:38:33.947Z,5.84
2019-05-13T01:41:04.548Z,5.70
2019-05-13T01:43:35.134Z,5.73
2019-05-13T01:46:05.614Z,5.69
2019-05-13T01:48:36.104Z,5.60
2019-05-13T01:51:06.746Z,5.47
2019-05-13T01:53:37.300Z,5.53
2019-05-13T01:56:08.353Z,5.51
2019-05-13T01:58:41.374Z,5.50
2019-05-13T02:01:13.836Z,5.32
2019-05-13T02:03:44.544Z,5.53
2019-05-13T02:06:15.461Z,5.52
2019-05-13T02:08:56.263Z,5.26
2019-05-13T02:11:26.742Z,5.29
2019-05-13T02:13:58.228Z,5.43
2019-05-13T02:16:29.078Z,5.42
2019-05-13T02:18:59.555Z,5.46
2019-05-13T02:21:33.469Z,5.31
2019-05-13T02:24:07.216Z,5.11
2019-05-13T02:26:38.049Z,5.07
2019-05-13T02:29:08.407Z,5.11
2019-05-13T02:31:46.528Z,5.00
2019-05-13T02:34:13.613Z,5.08
2019-05-13T02:36:44.063Z,5.05
2019-05-13T02:39:14.550Z,5.12
2019-05-13T02:41:45.057Z,5.08
2019-05-13T02:44:15.593Z,5.09
2019-05-13T02:46:46.529Z,5.35
2019-05-13T02:49:17.279Z,5.27
2019-05-13T02:51:47.743Z,5.17
2019-05-13T02:54:18.198Z,5.08
2019-05-13T02:56:48.662Z,4.96
2019-05-13T02:59:19.174Z,5.13
2019-05-13T03:01:53.003Z,4.95
2019-05-13T03:04:23.372Z,4.98
2019-05-13T03:06:57.772Z,4.91
2019-05-13T03:09:28.164Z,4.96
2019-05-13T03:11:58.649Z,4.84
2019-05-13T03:14:32.339Z,4.86
2019-05-13T03:17:12.826Z,4.84
2019-05-13T03:19:43.694Z,4.54
2019-05-13T03:22:14.256Z,4.49
2019-05-13T03:24:45.012Z,4.42
2019-05-13T03:27:20.039Z,4.38
2019-05-13T03:29:47.924Z,4.22
2019-05-13T03:32:18.247Z,4.31
2019-05-13T03:34:48.747Z,4.39
2019-05-13T03:37:25.366Z,4.27
2019-05-13T03:39:52.396Z,4.42
2019-05-13T03:42:26.502Z,4.53
2019-05-13T03:44:57.156Z,4.50
2019-05-13T03:47:28.351Z,4.37
2019-05-13T03:50:03.596Z,4.35
2019-05-13T03:52:33.964Z,4.43
2019-05-13T03:55:05.016Z,4.40
2019-05-13T03:57:35.460Z,4.54
2019-05-13T04:00:06.152Z,4.51
2019-05-13T04:02:36.630Z,4.57
2019-05-13T04:05:07.936Z,4.62
2019-05-13T04:07:57.461Z,4.57
2019-05-13T04:10:27.973Z,4.62
2019-05-13T04:12:58.821Z,4.66
2019-05-13T04:15:32.000Z,4.72
2019-05-13T04:18:03.087Z,4.78
2019-05-13T04:20:33.835Z,4.81
2019-05-13T04:23:04.766Z,4.87
2019-05-13T04:25:39.384Z,4.87
2019-05-13T04:28:07.753Z,4.92
2019-05-13T04:30:38.206Z,4.96
2019-05-13T04:33:09.245Z,5.01
2019-05-13T04:35:43.616Z,5.09
2019-05-13T04:38:14.190Z,5.16
2019-05-13T04:40:44.819Z,5.23
2019-05-13T04:43:15.902Z,5.22
2019-05-13T04:45:47.211Z,6.19
2019-05-13T04:48:23.250Z,7.73
2019-05-13T04:51:03.067Z,7.71
2019-05-13T04:53:33.565Z,7.74
2019-05-13T04:56:14.269Z,8.10
2019-05-13T04:58:45.483Z,8.34
2019-05-13T05:02:13.610Z,7.88
2019-05-13T05:05:05.944Z,8.31
2019-05-13T05:08:11.968Z,8.92
2019-05-13T05:11:52.892Z,9.00
2019-05-13T05:14:55.135Z,9.38
2019-05-13T05:18:16.456Z,10.69
2019-05-13T05:21:12.011Z,9.67
2019-05-13T05:24:41.679Z,8.78
2019-05-13T05:27:51.417Z,9.39
2019-05-13T05:31:11.555Z,8.25
2019-05-13T05:34:24.951Z,9.31
2019-05-13T05:37:41.610Z,9.13
2019-05-13T05:40:12.602Z,8.18
2019-05-13T05:42:45.487Z,8.91
2019-05-13T05:45:17.155Z,8.63
2019-05-13T05:47:51.622Z,8.57
2019-05-13T05:50:22.988Z,8.84
2019-05-13T05:52:55.476Z,8.29
2019-05-13T05:55:27.833Z,8.08
2019-05-13T05:57:58.746Z,7.81
2019-05-13T06:00:29.186Z,7.93
2019-05-13T06:03:02.619Z,8.41
2019-05-13T06:05:33.254Z,8.34
2019-05-13T06:08:03.700Z,7.80
2019-05-13T06:10:46.295Z,8.11
2019-05-13T06:13:06.848Z,7.28
2019-05-13T06:15:37.251Z,8.02
2019-05-13T06:18:08.043Z,7.44
2019-05-13T06:20:38.796Z,8.19
2019-05-13T06:23:11.346Z,7.65
2019-05-13T06:25:42.930Z,7.88
2019-05-13T06:28:14.259Z,7.80
2019-05-13T06:30:44.884Z,7.90
2019-05-13T06:33:15.847Z,7.90
2019-05-13T06:35:46.493Z,7.05
2019-05-13T06:38:16.870Z,7.49
2019-05-13T06:40:59.507Z,7.27
2019-05-13T06:43:21.139Z,8.17
2019-05-13T06:45:52.282Z,8.21
2019-05-13T06:48:23.187Z,8.23
2019-05-13T06:50:53.699Z,8.48
2019-05-13T06:53:24.162Z,8.10
2019-05-13T06:55:54.845Z,7.44
2019-05-13T06:58:26.026Z,8.05
2019-05-13T07:00:58.083Z,7.91
2019-05-13T07:03:28.681Z,8.68
2019-05-13T07:06:01.649Z,8.72
2019-05-13T07:08:31.604Z,8.50
2019-05-13T07:11:17.127Z,8.99
2019-05-13T07:13:34.984Z,8.15
2019-05-13T07:16:05.757Z,8.23
2019-05-13T07:18:36.233Z,8.41
2019-05-13T07:21:06.652Z,9.53
2019-05-13T07:23:37.360Z,8.98
2019-05-13T07:26:07.795Z,9.25
2019-05-13T07:28:38.570Z,9.34
2019-05-13T07:31:11.406Z,9.03
2019-05-13T07:33:42.597Z,9.87
2019-05-13T07:36:13.553Z,9.30
2019-05-13T07:38:44.937Z,9.01
2019-05-13T07:41:15.411Z,9.79
2019-05-13T07:43:45.854Z,9.65
2019-05-13T07:46:16.327Z,9.19
2019-05-13T07:48:46.673Z,8.91
2019-05-13T07:51:17.081Z,9.93
2019-05-13T07:53:47.555Z,9.95
2019-05-13T07:56:18.178Z,9.34
2019-05-13T07:58:49.060Z,9.28
2019-05-13T08:01:22.090Z,10.09
2019-05-13T08:03:51.978Z,10.17
2019-05-13T08:06:22.407Z,9.43
2019-05-13T08:08:52.830Z,10.13
2019-05-13T08:11:24.080Z,9.88
2019-05-13T08:13:54.969Z,10.06
2019-05-13T08:16:25.617Z,10.40
2019-05-13T08:18:56.072Z,10.02
2019-05-13T08:21:26.624Z,10.31
2019-05-13T08:23:57.042Z,10.55
2019-05-13T08:26:29.072Z,10.65
2019-05-13T08:29:03.203Z,10.56
2019-05-13T08:31:32.331Z,9.73
2019-05-13T08:34:02.844Z,11.26
2019-05-13T08:36:33.263Z,11.03
2019-05-13T08:39:05.035Z,11.51
2019-05-13T08:41:35.746Z,11.29
2019-05-13T08:44:06.418Z,11.41
2019-05-13T08:46:36.887Z,11.42
2019-05-13T08:49:08.334Z,11.40
2019-05-13T08:51:41.798Z,11.12
2019-05-13T08:54:11.698Z,10.89
2019-05-13T08:56:42.325Z,11.24
2019-05-13T08:59:12.833Z,12.02
2019-05-13T09:01:43.240Z,11.20
2019-05-13T09:04:14.272Z,11.78
2019-05-13T09:06:44.812Z,12.03
2019-05-13T09:09:15.538Z,11.78
2019-05-13T09:11:46.012Z,11.32
2019-05-13T09:14:16.418Z,11.69
2019-05-13T09:16:46.913Z,11.96
2019-05-13T09:19:17.588Z,12.08
2019-05-13T09:21:48.072Z,11.95
2019-05-13T09:24:26.131Z,12.68
2019-05-13T09:26:52.687Z,12.24
2019-05-13T09:29:23.256Z,12.62
2019-05-13T09:31:53.716Z,11.88
2019-05-13T09:34:24.164Z,11.73
2019-05-13T09:36:54.654Z,12.52
2019-05-13T09:39:25.263Z,11.96
2019-05-13T09:41:55.708Z,12.93
2019-05-13T09:44:26.914Z,12.41
2019-05-13T09:46:57.377Z,13.14
2019-05-13T09:49:28.084Z,12.30
2019-05-13T09:51:58.785Z,12.67
2019-05-13T09:54:32.534Z,12.54
2019-05-13T09:57:02.172Z,12.38
2019-05-13T09:59:32.561Z,13.02
2019-05-13T10:02:03.507Z,12.73
2019-05-13T10:04:34.014Z,12.29
2019-05-13T10:07:04.792Z,12.99
2019-05-13T10:09:35.704Z,12.68
2019-05-13T10:12:06.278Z,13.45
2019-05-13T10:14:36.689Z,12.97
2019-05-13T10:17:07.714Z,13.15
2019-05-13T10:19:38.524Z,13.33
2019-05-13T10:22:11.787Z,12.96
2019-05-13T10:24:42.398Z,13.24
2019-05-13T10:27:13.421Z,13.68
2019-05-13T10:29:44.264Z,13.01
2019-05-13T10:32:14.910Z,12.77
2019-05-13T10:34:46.498Z,13.70
2019-05-13T10:37:16.875Z,13.54
2019-05-13T10:39:47.869Z,13.56
2019-05-13T10:42:18.243Z,14.08
2019-05-13T10:44:51.736Z,13.54
2019-05-13T10:47:22.765Z,14.19
2019-05-13T10:49:53.605Z,13.93
2019-05-13T10:52:24.231Z,13.67
2019-05-13T10:54:54.609Z,13.91
2019-05-13T10:57:25.095Z,14.69
2019-05-13T10:59:59.710Z,14.52
2019-05-13T11:02:27.942Z,14.09
2019-05-13T11:04:58.835Z,14.00
2019-05-13T11:07:31.333Z,14.08
2019-05-13T11:10:02.362Z,13.30
2019-05-13T11:12:33.661Z,14.15
2019-05-13T11:15:05.229Z,13.62
2019-05-13T11:17:35.702Z,13.79
2019-05-13T11:20:06.564Z,13.97
2019-05-13T11:22:36.996Z,13.58
2019-05-13T11:25:07.574Z,13.94
2019-05-13T11:27:38.456Z,14.08
2019-05-13T11:30:09.134Z,14.16
2019-05-13T11:32:42.416Z,14.28
2019-05-13T11:35:12.997Z,14.37
2019-05-13T11:37:43.785Z,14.37
2019-05-13T11:40:14.604Z,13.88
2019-05-13T11:42:45.058Z,14.73
2019-05-13T11:45:16.975Z,14.54
2019-05-13T11:47:47.498Z,14.31
2019-05-13T11:50:18.092Z,14.48
2019-05-13T11:52:52.140Z,14.49
2019-05-13T11:55:22.955Z,13.87
2019-05-13T11:57:53.684Z,14.49
2019-05-13T12:00:53.348Z,14.33
2019-05-13T12:03:24.331Z,14.26
2019-05-13T12:05:55.389Z,14.13
2019-05-13T12:08:26.230Z,14.38
2019-05-13T12:10:56.678Z,14.57
2019-05-13T12:13:27.869Z,15.13
2019-05-13T12:15:58.657Z,14.12
2019-05-13T12:18:29.155Z,14.48
2019-05-13T12:21:02.884Z,14.90
2019-05-13T12:23:32.068Z,14.33
2019-05-13T12:26:04.035Z,15.02
2019-05-13T12:28:35.330Z,14.81
2019-05-13T12:31:06.504Z,14.83
2019-05-13T12:33:36.925Z,15.80
2019-05-13T12:36:14.830Z,14.61
2019-05-13T12:38:44.010Z,15.20
2019-05-13T12:41:13.076Z,15.53
2019-05-13T12:43:43.682Z,14.87
2019-05-13T12:46:14.428Z,14.45
2019-05-13T12:48:45.095Z,15.43
2019-05-13T12:51:15.514Z,14.82
2019-05-13T12:53:46.451Z,15.09
2019-05-13T12:56:16.963Z,14.97
2019-05-13T12:58:47.420Z,15.62
2019-05-13T13:01:17.867Z,14.67
2019-05-13T13:03:48.266Z,15.96
2019-05-13T13:06:31.285Z,15.29
2019-05-13T13:08:51.522Z,16.36
2019-05-13T13:11:22.845Z,14.73
2019-05-13T13:13:59.706Z,16.02
2019-05-13T13:16:34.048Z,15.74
2019-05-13T13:18:58.196Z,16.19
2019-05-13T13:21:34.443Z,15.18
2019-05-13T13:24:04.561Z,15.72
2019-05-13T13:26:34.044Z,14.67
2019-05-13T13:29:04.573Z,14.61
2019-05-13T13:31:35.276Z,15.48
2019-05-13T13:34:12.224Z,15.44
2019-05-13T13:36:38.506Z,16.03
2019-05-13T13:39:13.735Z,15.64
2019-05-13T13:41:43.766Z,15.52
2019-05-13T13:44:14.810Z,15.46
2019-05-13T13:46:49.557Z,15.04
2019-05-13T13:49:17.505Z,15.43
2019-05-13T13:51:47.900Z,15.33
2019-05-13T13:54:18.371Z,15.75
2019-05-13T13:56:54.512Z,15.90
2019-05-13T13:59:24.594Z,15.52
2019-05-13T14:01:55.483Z,15.58
2019-05-13T14:04:26.032Z,15.22
2019-05-13T14:09:29.260Z,15.41
2019-05-13T14:12:01.851Z,16.29
2019-05-13T14:14:32.058Z,16.41
2019-05-13T14:17:03.184Z,15.16
2019-05-13T14:19:33.874Z,16.14
2019-05-13T14:22:04.312Z,15.57
2019-05-13T14:24:35.050Z,16.04
2019-05-13T14:27:05.803Z,15.80
2019-05-13T14:29:41.253Z,15.51
2019-05-13T14:32:08.348Z,14.90
2019-05-13T14:34:38.733Z,15.81
2019-05-13T14:37:11.528Z,15.42
2019-05-13T14:39:41.476Z,16.35
2019-05-13T14:42:12.278Z,16.73
2019-05-13T14:44:43.086Z,16.56
2019-05-13T14:47:13.725Z,15.48
2019-05-13T14:49:44.302Z,15.87
2019-05-13T14:52:14.692Z,16.56
2019-05-13T14:54:45.646Z,15.88
2019-05-13T14:57:16.542Z,15.61
2019-05-13T14:59:47.471Z,16.01
2019-05-13T15:02:18.287Z,16.44
2019-05-13T15:04:52.425Z,15.88
2019-05-13T15:07:23.378Z,15.42
2019-05-13T15:09:54.103Z,15.27
2019-05-13T15:12:24.956Z,15.78
2019-05-13T15:14:55.421Z,16.24
2019-05-13T15:17:26.026Z,16.34
2019-05-13T15:19:56.561Z,15.89
2019-05-13T15:22:27.048Z,16.13
2019-05-13T15:25:08.547Z,16.20
2019-05-13T15:27:42.215Z,15.49
2019-05-13T15:30:17.838Z,15.68
2019-05-13T15:32:45.632Z,15.89
2019-05-13T15:35:24.610Z,16.39
2019-05-13T15:37:55.365Z,16.49
2019-05-13T15:40:26.001Z,16.94
2019-05-13T15:42:56.753Z,16.50
2019-05-13T15:45:27.804Z,15.81
2019-05-13T15:47:59.253Z,15.91
2019-05-13T15:50:31.895Z,15.93
2019-05-13T15:53:02.962Z,15.81
2019-05-13T15:55:33.879Z,16.06
2019-05-13T15:58:05.050Z,15.70
2019-05-13T16:00:35.646Z,15.46
2019-05-13T16:03:06.160Z,15.88
2019-05-13T16:05:39.103Z,15.58
2019-05-13T16:08:11.972Z,16.55
2019-05-13T16:10:42.223Z,15.99
2019-05-13T16:13:12.764Z,15.62
2019-05-13T16:15:43.239Z,15.84
2019-05-13T16:18:13.663Z,15.89
2019-05-13T16:20:45.366Z,15.90
2019-05-13T16:23:16.121Z,15.89
2019-05-13T16:25:46.864Z,16.41
2019-05-13T16:28:17.468Z,16.53
2019-05-13T16:30:51.397Z,15.82
2019-05-13T16:33:21.255Z,16.09
2019-05-13T16:36:12.371Z,15.93
2019-05-13T16:38:42.288Z,16.06
2019-05-13T16:41:12.861Z,16.24
2019-05-13T16:43:43.439Z,16.73
2019-05-13T16:46:13.993Z,16.80
2019-05-13T16:48:44.691Z,16.78
2019-05-13T16:51:15.258Z,16.93
2019-05-13T16:53:45.817Z,16.81
2019-05-13T16:56:26.337Z,17.44
2019-05-13T16:58:48.482Z,17.22
2019-05-13T17:01:19.107Z,17.04
2019-05-13T17:03:51.288Z,16.84
2019-05-13T17:06:21.862Z,16.87
2019-05-13T17:08:52.417Z,16.50
2019-05-13T17:11:22.880Z,16.08
2019-05-13T17:13:53.742Z,16.36
2019-05-13T17:16:24.998Z,16.73
2019-05-13T17:18:55.447Z,16.15
2019-05-13T17:21:26.022Z,16.26
2019-05-13T17:23:56.448Z,16.80
2019-05-13T17:26:27.377Z,16.89
2019-05-13T17:28:57.920Z,16.34
2019-05-13T17:31:28.373Z,16.79
2019-05-13T17:34:01.316Z,16.09
2019-05-13T17:36:32.506Z,15.96
2019-05-13T17:39:12.560Z,15.97
2019-05-13T17:41:43.412Z,16.69
2019-05-13T17:44:15.944Z,15.86
2019-05-13T17:46:46.466Z,16.09
2019-05-13T17:49:16.883Z,16.11
2019-05-13T17:51:47.923Z,16.66
2019-05-13T17:54:18.754Z,16.36
2019-05-13T17:56:49.189Z,15.84
2019-05-13T17:59:21.687Z,16.28
2019-05-13T18:01:52.016Z,15.99
2019-05-13T18:04:22.798Z,15.58
2019-05-13T18:06:53.271Z,15.09
2019-05-13T18:09:25.047Z,15.11
2019-05-13T18:11:55.551Z,15.16
2019-05-13T18:14:25.938Z,14.80
2019-05-13T18:17:06.115Z,14.81
2019-05-13T18:19:37.879Z,14.18
2019-05-13T18:22:15.341Z,14.02
2019-05-13T18:24:46.391Z,13.97
2019-05-13T18:27:16.824Z,13.94
2019-05-13T18:29:51.642Z,13.67
2019-05-13T18:32:22.187Z,13.61
2019-05-13T18:34:52.571Z,13.60
2019-05-13T18:37:23.066Z,13.11
2019-05-13T18:39:53.516Z,12.94
2019-05-13T18:42:23.943Z,12.73
2019-05-13T18:44:54.329Z,12.59
2019-05-13T18:47:25.344Z,12.35
2019-05-13T18:49:55.777Z,12.27
2019-05-13T18:52:26.760Z,12.15
2019-05-13T18:54:57.224Z,12.13
2019-05-13T18:57:28.112Z,12.04
2019-05-13T18:59:58.923Z,11.97
2019-05-13T19:02:31.873Z,11.72
2019-05-13T19:05:01.795Z,11.63
2019-05-13T19:07:33.326Z,11.51
2019-05-13T19:10:04.928Z,11.45
2019-05-13T19:12:35.331Z,11.46
2019-05-13T19:15:08.133Z,11.32
2019-05-13T19:17:41.333Z,11.25
2019-05-13T19:20:11.655Z,11.21
2019-05-13T19:22:43.276Z,11.22
2019-05-13T19:25:15.190Z,11.01
2019-05-13T19:27:45.769Z,11.03
2019-05-13T19:30:16.256Z,10.97
2019-05-13T19:32:46.754Z,10.92
2019-05-13T19:35:17.342Z,10.85
2019-05-13T19:37:51.400Z,10.74
2019-05-13T19:40:22.098Z,10.76
2019-05-13T19:42:52.612Z,10.71
2019-05-13T19:45:23.241Z,10.56
2019-05-13T19:48:01.240Z,10.45
2019-05-13T19:50:32.020Z,10.36
2019-05-13T19:53:02.696Z,10.35
2019-05-13T19:55:34.192Z,10.35
2019-05-13T19:58:06.092Z,10.32
2019-05-13T20:00:36.682Z,10.28
2019-05-13T20:03:07.623Z,10.24
2019-05-13T20:05:38.376Z,10.45
2019-05-13T20:08:08.949Z,10.28
2019-05-13T20:10:39.412Z,10.19
2019-05-13T20:13:11.236Z,10.24
2019-05-13T20:15:41.859Z,10.17
2019-05-13T20:18:14.686Z,10.18
2019-05-13T20:20:45.180Z,10.10
2019-05-13T20:23:15.913Z,10.07
2019-05-13T20:25:48.712Z,9.94
2019-05-13T20:28:19.196Z,9.91
2019-05-13T20:30:51.125Z,9.82
2019-05-13T20:33:22.164Z,9.73
2019-05-13T20:35:52.797Z,9.66
2019-05-13T20:38:23.223Z,9.63
2019-05-13T20:40:53.811Z,9.52
2019-05-13T20:43:24.222Z,9.49
2019-05-13T20:45:54.668Z,9.50
2019-05-13T20:48:25.202Z,9.40
2019-05-13T20:51:05.868Z,9.44
2019-05-13T20:53:41.231Z,9.41
2019-05-13T20:56:15.497Z,9.30
2019-05-13T20:58:46.063Z,9.27
2019-05-13T21:01:16.839Z,9.21
2019-05-13T21:03:47.309Z,9.21
2019-05-13T21:06:32.739Z,9.16
2019-05-13T21:09:11.184Z,9.15
2019-05-13T21:11:38.060Z,9.15
2019-05-13T21:14:08.473Z,9.14
2019-05-13T21:16:41.663Z,9.06
2019-05-13T21:19:12.583Z,8.99
2019-05-13T21:21:51.102Z,8.96
2019-05-13T21:24:21.634Z,8.97
2019-05-13T21:26:53.770Z,8.95
2019-05-13T21:29:24.288Z,8.91
2019-05-13T21:31:54.735Z,8.75
2019-05-13T21:34:25.415Z,8.81
2019-05-13T21:36:55.810Z,8.83
2019-05-13T21:39:26.464Z,8.87
2019-05-13T21:41:56.957Z,9.02
2019-05-13T21:44:27.953Z,8.92
2019-05-13T21:46:58.309Z,8.86
2019-05-13T21:49:31.471Z,8.85
2019-05-13T21:52:01.529Z,8.70
2019-05-13T21:54:33.572Z,8.67
2019-05-13T21:57:04.035Z,8.59
2019-05-13T21:59:34.459Z,8.54
2019-05-13T22:02:05.205Z,8.49
2019-05-13T22:04:35.945Z,8.44
2019-05-13T22:07:12.370Z,8.47
2019-05-13T22:09:43.286Z,8.59
2019-05-13T22:12:13.995Z,8.59
2019-05-13T22:14:44.310Z,8.55
2019-05-13T22:17:14.928Z,8.54
2019-05-13T22:19:45.253Z,8.65
2019-05-13T22:22:15.761Z,8.76
2019-05-13T22:24:48.622Z,8.48
2019-05-13T22:27:19.018Z,8.48
2019-05-13T22:29:51.330Z,8.52
2019-05-13T22:32:22.093Z,8.44
2019-05-13T22:34:52.477Z,8.33
2019-05-13T22:37:23.248Z,8.35
2019-05-13T22:39:53.671Z,8.39
2019-05-13T22:42:24.064Z,8.41
2019-05-13T22:44:54.497Z,8.56
2019-05-13T22:47:24.946Z,8.41
2019-05-13T22:49:57.763Z,8.56
2019-05-13T22:52:28.202Z,8.46
2019-05-13T22:54:58.953Z,8.42
2019-05-13T22:57:31.355Z,8.46
2019-05-13T23:00:02.050Z,8.33
2019-05-13T23:02:33.508Z,8.00
2019-05-13T23:05:04.183Z,7.98
2019-05-13T23:07:34.891Z,7.87
2019-05-13T23:10:05.895Z,8.02
2019-05-13T23:12:36.808Z,8.23
2019-05-13T23:15:08.068Z,8.20
2019-05-13T23:17:38.392Z,8.04
2019-05-13T23:20:09.023Z,8.12
2019-05-13T23:22:41.311Z,8.06
2019-05-13T23:25:12.259Z,7.98
2019-05-13T23:27:42.795Z,8.02
2019-05-13T23:30:14.166Z,7.92
2019-05-13T23:32:44.715Z,7.88
2019-05-13T23:35:15.724Z,7.69
2019-05-13T23:37:46.933Z,7.68
2019-05-13T23:40:17.347Z,7.72
2019-05-13T23:42:48.591Z,7.84
2019-05-13T23:45:19.195Z,7.81
2019-05-13T23:47:51.059Z,7.78
2019-05-13T23:50:21.785Z,7.52
2019-05-13T23:52:52.399Z,7.58
2019-05-13T23:55:23.208Z,7.60
2019-05-13T23:57:53.763Z,7.57
